Time;durP1;ratioP1;P1;durP2;ratioP2;P2;SDS_P1;SDS_P2;PMS_P1;PMS_P2;Temp;Humidity;BMP_temperature;BMP_pressure;BME280_temperature;BME280_humidity;BME280_pressure;Samples;Min_cycle;Max_cycle;Signal;HPM_P1;HPM_P2
2024/01/24 00:02:00;;;;;;;0.80;0.50;;;8.80;99.90;;;;;;5043838;28;20196;-82
2024/01/24 00:04:27;;;;;;;2.10;0.90;;;8.80;99.90;;;;;;5040518;28;20210;-82
2024/01/24 00:06:54;;;;;;;1.80;0.70;;;8.80;99.90;;;;;;5047370;28;20224;-82
2024/01/24 00:09:22;;;;;;;0.83;0.83;;;8.80;99.90;;;;;;5040697;28;20321;-80
2024/01/24 00:11:49;;;;;;;3.03;1.03;;;8.90;99.90;;;;;;5052687;28;20210;-82
2024/01/24 00:14:16;;;;;;;0.93;0.60;;;8.90;99.90;;;;;;5046495;28;20286;-82
2024/01/24 00:16:43;;;;;;;0.70;0.70;;;8.90;99.90;;;;;;5041086;28;20246;-81
2024/01/24 00:19:10;;;;;;;1.00;0.90;;;9.00;99.90;;;;;;5042173;28;20218;-81
2024/01/24 00:21:37;;;;;;;1.60;0.97;;;9.00;99.90;;;;;;5040267;28;20212;-81
2024/01/24 00:24:04;;;;;;;1.70;1.03;;;9.00;99.90;;;;;;5043374;28;20556;-81
2024/01/24 00:26:33;;;;;;;1.90;1.07;;;9.00;99.90;;;;;;5044293;28;20223;-82
2024/01/24 00:28:59;;;;;;;1.97;0.87;;;9.10;99.90;;;;;;5047904;28;20214;-81
2024/01/24 00:31:26;;;;;;;1.10;0.83;;;9.10;99.90;;;;;;5042575;28;20207;-80
2024/01/24 00:33:53;;;;;;;1.70;0.77;;;9.10;99.90;;;;;;5044322;28;20199;-81
2024/01/24 00:36:20;;;;;;;2.17;1.17;;;9.20;99.90;;;;;;5042123;28;20239;-82
2024/01/24 00:38:47;;;;;;;1.50;1.10;;;9.20;99.90;;;;;;5042366;28;20208;-82
2024/01/24 00:41:13;;;;;;;1.37;1.13;;;9.20;99.90;;;;;;5039121;28;20205;-83
2024/01/24 00:43:42;;;;;;;2.13;1.03;;;9.50;99.90;;;;;;5033497;28;20223;-83
2024/01/24 00:46:09;;;;;;;0.97;0.83;;;9.20;99.90;;;;;;5042208;28;20302;-80
2024/01/24 00:48:36;;;;;;;3.40;1.00;;;9.20;99.90;;;;;;5049168;28;20199;-82
2024/01/24 00:51:03;;;;;;;2.87;1.10;;;9.30;99.90;;;;;;5038109;28;20210;-79
2024/01/24 00:53:30;;;;;;;1.00;0.80;;;9.30;99.90;;;;;;5051244;28;20227;-82
2024/01/24 00:55:57;;;;;;;1.50;1.40;;;9.40;99.90;;;;;;5048426;28;20666;-82
2024/01/24 00:58:24;;;;;;;0.80;0.70;;;9.40;99.90;;;;;;5044708;28;20279;-82
2024/01/24 01:00:52;;;;;;;2.87;1.03;;;9.40;99.90;;;;;;5046174;28;20215;-84
2024/01/24 01:03:19;;;;;;;1.53;1.00;;;9.50;99.90;;;;;;5046725;28;20254;-82
2024/01/24 01:05:46;;;;;;;0.70;0.70;;;9.50;99.90;;;;;;5039915;28;20302;-81
2024/01/24 01:08:13;;;;;;;1.90;0.77;;;9.50;99.90;;;;;;5042000;28;20227;-83
2024/01/24 01:10:40;;;;;;;1.77;0.83;;;9.60;99.90;;;;;;5040559;28;20218;-82
2024/01/24 01:13:07;;;;;;;0.73;0.70;;;9.70;99.90;;;;;;5040795;28;20330;-83
2024/01/24 01:15:33;;;;;;;1.70;0.80;;;9.80;99.90;;;;;;5045794;28;20305;-79
2024/01/24 01:18:01;;;;;;;2.73;0.93;;;9.90;99.90;;;;;;5043656;28;20226;-79
2024/01/24 01:20:28;;;;;;;0.80;0.50;;;10.00;99.90;;;;;;5045741;28;20278;-83
2024/01/24 01:22:55;;;;;;;0.90;0.90;;;10.20;99.90;;;;;;5048909;28;20213;-82
2024/01/24 01:25:22;;;;;;;1.13;0.83;;;10.20;99.90;;;;;;5046014;28;20224;-79
2024/01/24 01:27:49;;;;;;;0.80;0.80;;;10.20;99.90;;;;;;5047667;28;20210;-81
2024/01/24 01:30:16;;;;;;;0.80;0.80;;;10.30;99.90;;;;;;5045248;28;20207;-83
2024/01/24 01:32:43;;;;;;;1.27;1.00;;;10.30;99.90;;;;;;5045190;28;20205;-79
2024/01/24 01:35:11;;;;;;;2.20;0.70;;;10.40;99.90;;;;;;5053303;28;20223;-83
2024/01/24 01:37:39;;;;;;;1.13;0.90;;;10.40;99.90;;;;;;5038040;28;20227;-83
2024/01/24 01:40:07;;;;;;;0.97;0.97;;;10.50;99.90;;;;;;5044789;28;20637;-83
2024/01/24 01:42:34;;;;;;;3.87;1.00;;;10.40;99.90;;;;;;5044533;28;20202;-84
2024/01/24 01:45:03;;;;;;;0.77;0.77;;;10.40;99.90;;;;;;5044067;28;20595;-82
2024/01/24 01:47:30;;;;;;;1.70;0.83;;;10.40;99.90;;;;;;5039753;28;20566;-83
2024/01/24 01:49:57;;;;;;;3.17;1.43;;;10.40;99.90;;;;;;5043721;28;20196;-82
2024/01/24 01:52:25;;;;;;;1.90;1.10;;;10.40;99.90;;;;;;5048067;28;20288;-83
2024/01/24 01:54:52;;;;;;;2.53;1.70;;;10.40;99.90;;;;;;5047323;28;20193;-81
2024/01/24 01:57:19;;;;;;;1.47;1.00;;;10.60;99.90;;;;;;5046285;28;20225;-80
2024/01/24 01:59:47;;;;;;;1.40;0.93;;;10.30;99.90;;;;;;5043210;28;20200;-82
2024/01/24 02:02:15;;;;;;;2.57;1.53;;;10.30;99.90;;;;;;5042767;28;20306;-79
2024/01/24 02:04:41;;;;;;;1.53;1.10;;;10.30;99.90;;;;;;5047713;28;20207;-82
2024/01/24 02:07:08;;;;;;;1.20;1.10;;;10.20;99.90;;;;;;5046328;28;20199;-83
2024/01/24 02:09:36;;;;;;;2.80;1.23;;;10.20;99.90;;;;;;5049969;28;20207;-81
2024/01/24 02:12:04;;;;;;;2.73;1.13;;;10.20;99.90;;;;;;5043938;28;20298;-83
2024/01/24 02:14:30;;;;;;;1.93;1.07;;;10.20;99.90;;;;;;5043217;28;20290;-82
2024/01/24 02:16:57;;;;;;;2.10;1.53;;;10.20;99.90;;;;;;5050834;28;20219;-83
2024/01/24 02:19:25;;;;;;;1.47;1.37;;;10.20;99.90;;;;;;5044211;28;20547;-81
2024/01/24 02:21:52;;;;;;;1.80;1.70;;;10.20;99.90;;;;;;5039358;28;20652;-82
2024/01/24 02:24:20;;;;;;;1.93;1.40;;;10.20;99.90;;;;;;5053068;28;20207;-83
2024/01/24 02:26:47;;;;;;;1.80;1.07;;;10.20;99.90;;;;;;5044291;28;20216;-82
2024/01/24 02:29:14;;;;;;;2.73;1.77;;;10.20;99.90;;;;;;5043169;28;20213;-83
2024/01/24 02:31:41;;;;;;;4.73;1.97;;;10.20;99.90;;;;;;5042566;28;20604;-81
2024/01/24 02:34:07;;;;;;;2.60;2.20;;;10.20;99.90;;;;;;5041578;28;20575;-84
2024/01/24 02:36:34;;;;;;;3.83;2.30;;;10.30;99.90;;;;;;5052912;28;20254;-83
2024/01/24 02:39:01;;;;;;;3.60;2.47;;;10.30;99.90;;;;;;5034162;28;20655;-81
2024/01/24 02:41:29;;;;;;;3.17;2.10;;;10.30;99.90;;;;;;5045661;28;20200;-84
2024/01/24 02:43:56;;;;;;;3.90;2.17;;;10.20;99.90;;;;;;5040438;28;20200;-77
2024/01/24 02:46:23;;;;;;;4.97;2.53;;;10.30;99.90;;;;;;5043161;28;20431;-80
2024/01/24 02:48:50;;;;;;;6.03;2.60;;;10.30;99.90;;;;;;5040904;28;20198;-84
2024/01/24 02:51:24;;;;;;;4.57;2.20;;;10.80;99.90;;;;;;5050158;28;20211;-83
2024/01/24 02:53:51;;;;;;;4.37;2.70;;;10.30;99.90;;;;;;5043302;28;20225;-85
2024/01/24 02:56:18;;;;;;;3.03;2.73;;;10.30;99.90;;;;;;5048721;28;20224;-83
2024/01/24 02:58:46;;;;;;;3.13;2.70;;;10.20;99.90;;;;;;5048145;28;20333;-84
2024/01/24 03:01:14;;;;;;;5.53;3.50;;;10.30;99.90;;;;;;5042496;28;20572;-83
2024/01/24 03:03:41;;;;;;;3.97;2.90;;;10.60;99.90;;;;;;5041697;28;20199;-85
2024/01/24 03:06:08;;;;;;;3.70;2.73;;;10.30;99.90;;;;;;5050665;28;20231;-82
2024/01/24 03:08:47;;;;;;;3.50;2.83;;;10.30;99.90;;;;;;5047739;28;20614;-83
2024/01/24 03:11:14;;;;;;;3.90;2.70;;;10.30;99.90;;;;;;5047603;28;20237;-82
2024/01/24 03:13:41;;;;;;;3.00;2.73;;;10.40;99.90;;;;;;5046444;28;20263;-80
2024/01/24 03:16:09;;;;;;;7.97;3.07;;;10.40;99.90;;;;;;5047451;28;20227;-82
2024/01/24 03:18:37;;;;;;;3.37;2.77;;;10.40;99.90;;;;;;5042099;28;20207;-84
2024/01/24 03:21:05;;;;;;;3.07;2.73;;;10.40;99.90;;;;;;5043779;28;20211;-84
2024/01/24 03:23:32;;;;;;;2.53;2.30;;;10.50;99.90;;;;;;5046116;28;20196;-83
2024/01/24 03:25:59;;;;;;;2.70;1.87;;;10.50;99.90;;;;;;5043144;28;20326;-80
2024/01/24 03:28:26;;;;;;;4.00;2.07;;;10.50;99.90;;;;;;5045190;28;20199;-81
2024/01/24 03:30:53;;;;;;;2.73;1.33;;;10.60;99.90;;;;;;5048330;28;20204;-83
2024/01/24 03:33:21;;;;;;;2.00;1.60;;;10.70;99.90;;;;;;5051162;28;20299;-80
2024/01/24 03:35:48;;;;;;;1.43;1.23;;;10.70;99.90;;;;;;5044706;28;20299;-79
2024/01/24 03:38:15;;;;;;;1.77;0.90;;;10.90;99.90;;;;;;5042371;28;20222;-81
2024/01/24 03:40:42;;;;;;;1.13;0.83;;;11.10;99.90;;;;;;5045042;28;20267;-82
2024/01/24 03:43:10;;;;;;;2.00;1.13;;;11.10;99.90;;;;;;5042496;28;20213;-79
2024/01/24 03:45:37;;;;;;;1.80;0.73;;;11.10;99.90;;;;;;5047567;28;20350;-81
2024/01/24 03:48:05;;;;;;;1.30;1.20;;;11.20;99.90;;;;;;5050433;28;20298;-82
2024/01/24 03:50:34;;;;;;;2.90;1.77;;;11.40;99.90;;;;;;5046400;28;20230;-84
2024/01/24 03:53:01;;;;;;;3.03;1.40;;;11.60;99.90;;;;;;5047035;28;20581;-81
2024/01/24 03:55:29;;;;;;;2.03;1.70;;;11.80;99.90;;;;;;5044692;28;20224;-84
2024/01/24 03:57:56;;;;;;;1.73;1.60;;;11.80;99.90;;;;;;5051141;28;20682;-80
2024/01/24 04:00:23;;;;;;;2.00;1.70;;;11.80;99.90;;;;;;5046910;28;20295;-83
2024/01/24 04:02:50;;;;;;;2.30;2.10;;;11.80;99.90;;;;;;5048907;28;20286;-83
2024/01/24 04:05:17;;;;;;;4.40;2.00;;;11.80;99.90;;;;;;5040884;28;20230;-82
2024/01/24 04:07:45;;;;;;;2.47;2.20;;;11.90;99.90;;;;;;5041496;28;21253;-84
2024/01/24 04:10:12;;;;;;;3.60;3.27;;;12.00;99.90;;;;;;5045306;28;20204;-81
2024/01/24 04:12:39;;;;;;;2.77;2.57;;;12.20;99.90;;;;;;5045290;28;20231;-80
2024/01/24 04:15:07;;;;;;;25.67;2.97;;;12.20;99.90;;;;;;5039088;28;20267;-85
2024/01/24 04:17:33;;;;;;;5.10;2.60;;;12.40;99.90;;;;;;4986038;28;1099106;-83
2024/01/24 04:20:00;;;;;;;4.33;3.10;;;12.40;99.90;;;;;;5042617;28;20291;-82
2024/01/24 04:22:27;;;;;;;3.50;2.53;;;12.50;99.90;;;;;;5043302;28;20236;-81
2024/01/24 04:24:55;;;;;;;4.23;2.40;;;12.40;99.90;;;;;;5043241;28;20310;-81
2024/01/24 04:27:23;;;;;;;2.83;2.10;;;12.40;99.90;;;;;;5038387;28;20196;-83
2024/01/24 04:29:50;;;;;;;5.27;3.07;;;12.40;99.90;;;;;;5039640;28;20199;-83
2024/01/24 04:32:17;;;;;;;2.80;1.97;;;12.30;99.90;;;;;;5043187;28;20670;-81
2024/01/24 04:34:43;;;;;;;2.57;1.97;;;12.20;99.90;;;;;;5040996;28;20574;-80
2024/01/24 04:37:10;;;;;;;3.37;2.03;;;12.30;99.90;;;;;;5042284;28;20314;-83
2024/01/24 04:39:37;;;;;;;2.60;2.30;;;12.40;99.90;;;;;;5040764;28;20205;-83
2024/01/24 04:42:05;;;;;;;3.10;2.20;;;12.50;99.90;;;;;;5043285;28;20231;-85
2024/01/24 04:44:33;;;;;;;2.07;1.87;;;12.30;99.90;;;;;;5043034;28;20210;-83
2024/01/24 04:47:01;;;;;;;3.63;2.10;;;12.10;99.90;;;;;;5047422;28;20199;-81
2024/01/24 04:49:27;;;;;;;3.10;2.33;;;12.10;99.90;;;;;;5041402;28;20289;-82
2024/01/24 04:51:54;;;;;;;2.73;2.17;;;12.00;99.90;;;;;;5040728;28;20200;-81
2024/01/24 04:54:21;;;;;;;2.90;1.90;;;12.10;99.90;;;;;;5045621;28;20272;-82
2024/01/24 04:56:48;;;;;;;1.70;1.60;;;12.20;99.90;;;;;;5045542;28;20306;-82
2024/01/24 04:59:16;;;;;;;3.40;1.93;;;12.30;99.90;;;;;;5037896;28;20207;-83
2024/01/24 05:01:43;;;;;;;3.50;1.90;;;12.30;99.90;;;;;;5039666;28;20204;-83
2024/01/24 05:04:11;;;;;;;5.17;1.70;;;12.10;99.90;;;;;;5039235;28;20211;-85
2024/01/24 05:06:38;;;;;;;2.80;1.70;;;12.10;99.90;;;;;;5041904;28;20341;-86
2024/01/24 05:09:05;;;;;;;3.93;1.60;;;12.00;99.90;;;;;;5050321;28;20203;-83
2024/01/24 05:11:32;;;;;;;1.93;1.70;;;12.10;99.90;;;;;;5040911;28;20577;-84
2024/01/24 05:14:00;;;;;;;2.10;1.67;;;12.10;99.90;;;;;;5044132;28;20201;-82
2024/01/24 05:16:29;;;;;;;1.57;1.47;;;12.10;99.90;;;;;;5040821;28;20250;-80
2024/01/24 05:18:57;;;;;;;1.50;1.23;;;11.90;99.90;;;;;;5041285;28;20689;-83
2024/01/24 05:21:23;;;;;;;2.17;1.50;;;12.10;99.90;;;;;;5042432;28;20211;-83
2024/01/24 05:23:51;;;;;;;1.33;1.20;;;12.20;99.90;;;;;;5040060;28;20195;-81
2024/01/24 05:26:18;;;;;;;1.73;1.30;;;12.30;99.90;;;;;;5039294;28;20231;-84
2024/01/24 05:28:45;;;;;;;1.50;1.40;;;12.20;99.90;;;;;;5040927;28;20210;-80
2024/01/24 05:31:12;;;;;;;1.30;1.20;;;12.00;99.90;;;;;;5041116;28;20199;-84
2024/01/24 05:33:40;;;;;;;1.63;1.00;;;12.00;99.90;;;;;;5041346;28;20200;-83
2024/01/24 05:36:07;;;;;;;1.00;1.00;;;11.70;99.90;;;;;;5038847;28;20254;-83
2024/01/24 05:38:34;;;;;;;4.13;2.07;;;11.60;99.90;;;;;;5039370;28;20215;-81
2024/01/24 05:41:01;;;;;;;1.00;1.00;;;11.50;99.90;;;;;;5039486;28;20204;-81
2024/01/24 05:43:29;;;;;;;1.63;1.17;;;11.50;99.90;;;;;;5041611;28;20200;-81
2024/01/24 05:45:56;;;;;;;1.87;1.20;;;11.50;99.90;;;;;;5038361;28;20274;-80
2024/01/24 05:48:23;;;;;;;1.20;1.10;;;11.50;99.90;;;;;;5045688;28;20196;-83
2024/01/24 05:50:51;;;;;;;1.10;1.10;;;11.60;99.90;;;;;;5039017;28;20287;-84
2024/01/24 05:53:18;;;;;;;2.73;1.00;;;11.60;99.90;;;;;;5043487;28;20215;-82
2024/01/24 05:55:44;;;;;;;1.37;1.27;;;11.60;99.90;;;;;;5038778;28;20223;-81
2024/01/24 05:58:11;;;;;;;1.73;0.87;;;11.60;99.90;;;;;;5050980;28;20313;-82
2024/01/24 06:00:38;;;;;;;2.23;1.30;;;11.60;99.90;;;;;;5047404;28;20209;-83
2024/01/24 06:03:05;;;;;;;4.97;1.07;;;11.60;99.90;;;;;;5047024;28;20290;-83
2024/01/24 06:05:32;;;;;;;8.23;1.63;;;11.50;99.90;;;;;;5045005;28;20220;-83
2024/01/24 06:08:02;;;;;;;8.23;1.77;;;11.10;99.90;;;;;;5048839;28;20204;-83
2024/01/24 06:10:29;;;;;;;9.17;1.50;;;10.90;99.90;;;;;;5046302;28;20199;-82
2024/01/24 06:12:56;;;;;;;4.70;1.23;;;10.80;99.90;;;;;;5048677;28;20207;-82
2024/01/24 06:15:22;;;;;;;6.37;1.40;;;11.10;99.90;;;;;;5052039;28;20223;-83
2024/01/24 06:17:49;;;;;;;9.33;1.67;;;10.70;99.90;;;;;;5044705;28;20227;-80
2024/01/24 06:20:16;;;;;;;5.43;1.70;;;10.80;99.90;;;;;;5045619;28;20227;-82
2024/01/24 06:22:45;;;;;;;4.10;1.00;;;10.70;99.90;;;;;;5046313;28;20202;-82
2024/01/24 06:25:14;;;;;;;4.27;1.47;;;10.80;99.90;;;;;;5049652;28;20316;-82
2024/01/24 06:27:41;;;;;;;7.13;1.20;;;11.00;1.00;;;;;;5043066;28;20192;-81
2024/01/24 06:30:10;;;;;;;5.87;1.37;;;11.10;1.00;;;;;;5046442;28;20204;-81
2024/01/24 06:32:37;;;;;;;5.23;1.47;;;11.30;99.90;;;;;;5045186;28;20207;-81
2024/01/24 06:35:04;;;;;;;5.67;1.07;;;11.30;1.00;;;;;;5044101;28;20327;-80
2024/01/24 06:37:31;;;;;;;2.80;1.40;;;11.40;99.90;;;;;;5042854;28;20229;-81
2024/01/24 06:39:58;;;;;;;5.33;1.70;;;11.40;1.00;;;;;;5041385;28;20623;-81
2024/01/24 06:42:26;;;;;;;4.37;1.10;;;11.60;99.90;;;;;;5041398;28;20210;-84
2024/01/24 06:44:54;;;;;;;3.67;1.40;;;11.60;1.00;;;;;;5043077;28;20231;-82
2024/01/24 06:47:21;;;;;;;4.57;1.53;;;11.50;1.00;;;;;;5043599;28;20203;-80
2024/01/24 06:49:48;;;;;;;6.00;1.30;;;11.50;1.00;;;;;;5058560;28;20209;-82
2024/01/24 06:52:14;;;;;;;5.07;1.10;;;11.50;99.90;;;;;;5048877;28;20203;-81
2024/01/24 06:54:41;;;;;;;5.73;1.73;;;11.40;53.70;;;;;;5057345;28;20211;-82
2024/01/24 06:57:08;;;;;;;9.10;1.73;;;11.30;1.00;;;;;;5054559;28;20211;-81
2024/01/24 06:59:36;;;;;;;7.10;1.80;;;11.60;1.00;;;;;;5055023;28;20378;-80
2024/01/24 07:02:05;;;;;;;8.20;1.23;;;11.50;1.00;;;;;;5049543;28;20218;-81
2024/01/24 07:04:32;;;;;;;14.60;2.40;;;11.40;1.00;;;;;;5052360;28;20239;-82
2024/01/24 07:06:59;;;;;;;9.30;2.17;;;11.30;1.00;;;;;;5048404;28;20307;-80
2024/01/24 07:09:27;;;;;;;15.30;2.10;;;11.20;99.90;;;;;;5045634;28;20271;-80
2024/01/24 07:11:53;;;;;;;10.37;2.67;;;11.00;99.90;;;;;;5052176;28;20205;-81
2024/01/24 07:14:20;;;;;;;12.37;2.37;;;11.00;99.90;;;;;;5047589;28;20200;-82
2024/01/24 07:16:49;;;;;;;9.17;1.90;;;11.50;99.90;;;;;;5045379;28;20241;-83
2024/01/24 07:19:16;;;;;;;16.80;2.50;;;11.30;60.90;;;;;;5042297;28;20223;-82
2024/01/24 07:21:43;;;;;;;8.13;2.00;;;11.20;5.60;;;;;;5037084;28;20211;-84
2024/01/24 07:24:10;;;;;;;10.67;1.97;;;11.30;1.00;;;;;;5043050;28;20207;-82
2024/01/24 07:26:36;;;;;;;11.13;2.50;;;11.30;1.00;;;;;;5041614;28;20320;-79
2024/01/24 07:29:03;;;;;;;14.87;3.73;;;11.20;1.00;;;;;;5041733;28;20230;-83
2024/01/24 07:31:30;;;;;;;11.10;2.57;;;11.10;1.00;;;;;;5042435;28;20211;-83
2024/01/24 07:33:58;;;;;;;11.90;2.30;;;11.20;1.00;;;;;;5039501;28;20207;-82
2024/01/24 07:36:25;;;;;;;13.33;3.10;;;11.30;1.00;;;;;;5041173;28;20314;-81
2024/01/24 07:38:53;;;;;;;17.97;4.23;;;11.10;1.00;;;;;;5039577;28;20238;-83
2024/01/24 07:41:19;;;;;;;13.17;2.80;;;11.00;1.00;;;;;;5039726;28;20208;-83
2024/01/24 07:43:46;;;;;;;13.50;2.97;;;10.90;1.00;;;;;;5040616;28;20218;-81
2024/01/24 07:46:13;;;;;;;14.17;3.13;;;11.10;1.00;;;;;;5039596;28;20234;-82
2024/01/24 07:48:40;;;;;;;17.90;3.03;;;11.00;1.00;;;;;;5047064;28;20206;-84
2024/01/24 07:51:08;;;;;;;13.97;2.93;;;11.10;1.00;;;;;;5039002;28;20546;-83
2024/01/24 07:53:36;;;;;;;15.40;2.57;;;11.10;1.00;;;;;;5046675;28;20200;-81
2024/01/24 07:56:03;;;;;;;15.73;2.93;;;11.10;1.00;;;;;;5047513;28;20235;-79
2024/01/24 07:58:30;;;;;;;12.60;3.37;;;11.10;1.00;;;;;;5055642;28;20223;-84
2024/01/24 08:00:57;;;;;;;17.70;4.17;;;11.50;1.00;;;;;;5056638;28;20199;-81
2024/01/24 08:03:24;;;;;;;11.90;3.13;;;11.10;1.00;;;;;;5046200;28;20250;-80
2024/01/24 08:05:50;;;;;;;12.10;2.83;;;11.10;1.00;;;;;;5045555;28;20284;-83
2024/01/24 08:08:18;;;;;;;13.57;3.73;;;11.10;1.00;;;;;;5043591;28;20685;-79
2024/01/24 08:10:45;;;;;;;16.23;3.87;;;11.10;1.00;;;;;;5045079;28;20237;-80
2024/01/24 08:13:12;;;;;;;16.83;2.83;;;11.00;1.00;;;;;;5043136;28;20203;-81
2024/01/24 08:15:39;;;;;;;16.47;4.03;;;10.90;1.00;;;;;;5047676;28;20235;-82
2024/01/24 08:18:07;;;;;;;15.47;3.33;;;11.00;1.00;;;;;;5040248;28;20219;-83
2024/01/24 08:20:35;;;;;;;16.03;3.70;;;11.10;1.00;;;;;;5041825;28;20200;-82
2024/01/24 08:23:01;;;;;;;20.83;4.67;;;11.00;1.00;;;;;;5041704;28;20623;-83
2024/01/24 08:25:30;;;;;;;17.13;3.10;;;11.00;1.00;;;;;;5036862;28;20227;-84
2024/01/24 08:27:57;;;;;;;18.10;3.33;;;11.00;1.00;;;;;;5041921;28;20346;-81
2024/01/24 08:30:24;;;;;;;17.73;4.10;;;11.00;1.00;;;;;;5040417;28;20204;-82
2024/01/24 08:32:51;;;;;;;18.20;3.03;;;11.00;1.00;;;;;;5037164;28;20206;-81
2024/01/24 08:35:18;;;;;;;19.37;3.00;;;11.00;1.00;;;;;;5039541;28;20229;-81
2024/01/24 08:37:45;;;;;;;13.57;3.17;;;11.00;1.00;;;;;;5038497;28;20672;-80
2024/01/24 08:40:12;;;;;;;14.67;4.00;;;11.00;1.00;;;;;;5038711;28;20241;-82
2024/01/24 08:42:41;;;;;;;18.57;3.47;;;11.00;1.00;;;;;;5038697;28;20230;-82
2024/01/24 08:45:09;;;;;;;18.13;4.60;;;11.10;1.00;;;;;;5038347;28;20331;-80
2024/01/24 08:47:36;;;;;;;19.33;3.97;;;11.10;1.00;;;;;;5042118;28;20208;-80
2024/01/24 08:50:04;;;;;;;19.00;4.50;;;11.20;1.00;;;;;;5036124;28;20207;-80
2024/01/24 08:52:31;;;;;;;17.60;3.27;;;11.10;1.00;;;;;;5047070;28;20207;-83
2024/01/24 08:54:58;;;;;;;19.83;3.47;;;11.20;1.00;;;;;;5040153;28;20224;-82
2024/01/24 08:57:25;;;;;;;22.50;4.60;;;11.20;1.00;;;;;;5052827;28;20298;-80
2024/01/24 08:59:54;;;;;;;20.23;3.90;;;11.10;1.00;;;;;;5047082;28;20585;-83
2024/01/24 09:02:21;;;;;;;12.10;3.03;;;11.10;1.00;;;;;;5035631;28;20214;-83
2024/01/24 09:04:50;;;;;;;17.50;3.43;;;11.00;1.00;;;;;;5049825;28;20203;-81
2024/01/24 09:07:19;;;;;;;18.10;3.50;;;11.10;1.00;;;;;;5043493;28;20243;-80
2024/01/24 09:09:47;;;;;;;17.13;3.83;;;11.20;1.00;;;;;;5038126;28;20259;-81
2024/01/24 09:12:15;;;;;;;11.93;3.03;;;11.00;1.00;;;;;;5043780;28;20210;-81
2024/01/24 09:14:42;;;;;;;16.27;4.07;;;11.10;1.00;;;;;;5041171;28;20200;-83
2024/01/24 09:17:10;;;;;;;17.87;3.10;;;11.20;1.00;;;;;;5036582;28;20211;-80
2024/01/24 09:19:37;;;;;;;17.83;3.57;;;11.30;99.90;;;;;;5039701;28;20242;-82
2024/01/24 09:22:04;;;;;;;16.40;3.40;;;11.20;99.90;;;;;;5041310;28;20211;-80
2024/01/24 09:24:30;;;;;;;15.40;2.77;;;11.10;1.00;;;;;;5044220;28;20725;-83
2024/01/24 09:26:57;;;;;;;20.33;3.50;;;11.10;1.00;;;;;;5036298;28;20290;-82
2024/01/24 09:29:24;;;;;;;15.40;3.70;;;11.10;1.00;;;;;;5037860;28;20219;-83
2024/01/24 09:31:52;;;;;;;24.60;3.30;;;11.50;1.00;;;;;;5038884;28;20643;-80
2024/01/24 09:34:20;;;;;;;18.27;3.17;;;11.00;1.00;;;;;;5039971;28;20215;-82
2024/01/24 09:36:47;;;;;;;20.10;3.63;;;10.90;1.00;;;;;;5040121;28;20228;-81
2024/01/24 09:39:14;;;;;;;14.43;3.63;;;10.80;1.00;;;;;;5039424;28;20219;-82
2024/01/24 09:41:42;;;;;;;17.03;3.07;;;10.80;1.00;;;;;;5040085;28;20204;-81
2024/01/24 09:44:12;;;;;;;17.00;4.20;;;10.70;1.00;;;;;;5041682;28;20263;-81
2024/01/24 09:46:40;;;;;;;20.07;3.93;;;10.60;1.00;;;;;;5041783;28;20220;-81
2024/01/24 09:49:07;;;;;;;18.33;3.77;;;10.70;1.00;;;;;;5040427;28;20207;-83
2024/01/24 09:51:37;;;;;;;21.30;3.53;;;10.70;1.00;;;;;;5040711;28;20204;-85
2024/01/24 09:54:05;;;;;;;21.83;4.10;;;10.80;1.00;;;;;;5040500;28;20222;-81
2024/01/24 09:56:35;;;;;;;20.40;4.00;;;10.80;1.00;;;;;;5039139;28;20223;-81
2024/01/24 09:59:03;;;;;;;18.47;3.70;;;10.80;1.00;;;;;;5047451;28;20223;-82
2024/01/24 10:01:32;;;;;;;16.20;3.63;;;10.80;1.00;;;;;;5047976;28;20212;-83
2024/01/24 10:04:00;;;;;;;17.53;3.57;;;10.90;1.00;;;;;;5056368;28;20229;-82
2024/01/24 10:06:27;;;;;;;18.77;4.13;;;11.00;1.00;;;;;;5045389;28;20314;-82
2024/01/24 10:08:56;;;;;;;17.93;3.57;;;11.00;1.00;;;;;;5039345;28;20231;-83
2024/01/24 10:11:23;;;;;;;15.30;3.40;;;11.10;1.00;;;;;;5044866;28;20216;-82
2024/01/24 10:13:50;;;;;;;19.80;3.80;;;11.00;1.00;;;;;;5050465;28;20635;-81
2024/01/24 10:16:18;;;;;;;25.20;4.40;;;10.90;1.00;;;;;;5043163;28;20235;-81
2024/01/24 10:18:45;;;;;;;20.03;4.37;;;10.90;1.00;;;;;;5042453;28;20231;-80
2024/01/24 10:21:13;;;;;;;12.83;3.40;;;11.00;1.00;;;;;;5041172;28;20274;-79
2024/01/24 10:23:42;;;;;;;19.37;3.90;;;11.00;1.00;;;;;;5040783;28;20206;-81
2024/01/24 10:26:10;;;;;;;20.47;4.30;;;11.00;1.00;;;;;;5038241;28;20232;-82
2024/01/24 10:28:37;;;;;;;18.07;4.30;;;11.10;99.90;;;;;;5042308;28;20214;-83
2024/01/24 10:31:06;;;;;;;23.23;5.50;;;11.10;99.90;;;;;;5045424;28;20611;-81
2024/01/24 10:33:32;;;;;;;17.77;4.37;;;11.10;1.00;;;;;;5037096;28;20214;-81
2024/01/24 10:36:00;;;;;;;15.30;3.47;;;11.00;99.90;;;;;;5041764;28;20223;-83
2024/01/24 10:38:31;;;;;;;23.27;4.03;;;11.00;99.90;;;;;;5043068;28;20210;-81
2024/01/24 10:41:00;;;;;;;17.70;3.87;;;11.00;1.00;;;;;;5040971;28;20199;-83
2024/01/24 10:43:29;;;;;;;21.83;4.50;;;11.00;99.90;;;;;;5041942;28;20207;-79
2024/01/24 10:45:58;;;;;;;18.50;3.70;;;11.00;99.90;;;;;;5039125;28;20226;-82
2024/01/24 10:48:25;;;;;;;16.77;3.83;;;11.00;99.90;;;;;;5039128;28;20215;-83
2024/01/24 10:50:54;;;;;;;15.33;3.70;;;11.00;99.90;;;;;;5045102;28;20195;-81
2024/01/24 10:53:22;;;;;;;21.40;4.87;;;11.00;99.90;;;;;;5038431;28;20230;-81
2024/01/24 10:55:51;;;;;;;19.10;3.93;;;11.10;99.90;;;;;;5038801;28;20782;-81
2024/01/24 10:58:19;;;;;;;16.27;3.53;;;11.00;99.90;;;;;;5046515;28;20210;-80
2024/01/24 11:00:47;;;;;;;16.67;3.43;;;11.00;99.90;;;;;;5046187;28;20228;-82
2024/01/24 11:03:14;;;;;;;21.73;4.53;;;11.00;99.90;;;;;;5051110;28;20199;-80
2024/01/24 11:05:46;;;;;;;22.73;4.17;;;11.00;99.90;;;;;;5044974;28;20231;-82
2024/01/24 11:08:21;;;;;;;24.37;4.87;;;11.00;99.90;;;;;;5050782;28;20687;-84
2024/01/24 11:10:49;;;;;;;17.90;4.63;;;10.90;99.90;;;;;;5047865;28;20202;-82
2024/01/24 11:13:18;;;;;;;21.40;4.60;;;11.00;99.90;;;;;;5041083;28;20199;-79
2024/01/24 11:15:47;;;;;;;21.70;5.30;;;11.00;99.90;;;;;;5037595;28;20262;-80
2024/01/24 11:18:25;;;;;;;23.00;5.57;;;10.90;99.90;;;;;;5036794;28;20472;-81
2024/01/24 11:20:54;;;;;;;19.07;3.93;;;10.90;99.90;;;;;;5041609;28;20276;-81
2024/01/24 11:23:42;;;;;;;18.93;4.67;;;10.90;99.90;;;;;;5047305;28;20203;-83
2024/01/24 11:26:13;;;;;;;21.80;3.87;;;10.80;99.90;;;;;;5036799;28;20228;-80
2024/01/24 11:28:40;;;;;;;25.23;4.50;;;10.90;99.90;;;;;;5041842;28;20204;-79
2024/01/24 11:31:08;;;;;;;25.47;5.00;;;10.80;99.90;;;;;;5042399;28;20584;-82
2024/01/24 11:33:35;;;;;;;20.40;4.07;;;10.80;99.90;;;;;;5042283;28;20215;-79
2024/01/24 11:36:05;;;;;;;16.33;3.97;;;10.90;99.90;;;;;;5042112;28;20234;-81
2024/01/24 11:38:39;;;;;;;20.00;3.60;;;10.80;99.90;;;;;;5038460;28;20616;-83
2024/01/24 11:41:26;;;;;;;22.90;5.03;;;10.90;99.90;;;;;;5043104;28;20195;-81
2024/01/24 11:43:53;;;;;;;21.03;3.73;;;10.80;99.90;;;;;;5035645;28;20575;-80
2024/01/24 11:46:22;;;;;;;23.77;4.47;;;10.80;99.90;;;;;;5041042;28;20277;-82
2024/01/24 11:48:49;;;;;;;22.27;3.70;;;10.80;99.90;;;;;;5039689;28;20199;-81
2024/01/24 11:51:17;;;;;;;17.27;3.53;;;10.90;99.90;;;;;;5038067;28;20203;-80
2024/01/24 11:53:44;;;;;;;18.27;5.20;;;10.90;99.90;;;;;;5039819;28;20204;-80
2024/01/24 11:56:12;;;;;;;15.87;4.47;;;10.90;99.90;;;;;;5038145;28;20232;-84
2024/01/24 11:58:39;;;;;;;21.90;4.73;;;10.90;99.90;;;;;;5030599;28;20286;-78
2024/01/24 12:01:07;;;;;;;21.20;4.83;;;10.90;99.90;;;;;;5044083;28;20223;-79
2024/01/24 12:03:36;;;;;;;19.50;3.90;;;11.00;99.90;;;;;;5043526;28;20632;-80
2024/01/24 12:06:04;;;;;;;19.87;3.40;;;11.00;99.90;;;;;;5037519;28;20674;-80
2024/01/24 12:08:30;;;;;;;18.17;3.67;;;11.00;99.90;;;;;;5042967;28;20215;-83
2024/01/24 12:10:57;;;;;;;20.33;3.87;;;11.00;99.90;;;;;;5050463;28;20277;-81
2024/01/24 12:13:26;;;;;;;21.00;4.43;;;11.00;99.90;;;;;;5042852;28;20213;-81
2024/01/24 12:15:55;;;;;;;15.23;4.60;;;11.00;99.90;;;;;;5047228;28;20227;-81
2024/01/24 12:18:22;;;;;;;22.33;4.43;;;10.90;99.90;;;;;;5029569;28;20265;-80
2024/01/24 12:20:53;;;;;;;23.97;4.63;;;10.90;99.90;;;;;;5033256;28;20228;-79
2024/01/24 12:23:21;;;;;;;21.40;4.00;;;10.90;99.90;;;;;;5040976;28;20213;-80
2024/01/24 12:25:48;;;;;;;21.77;3.53;;;10.90;99.90;;;;;;5041889;28;20307;-79
2024/01/24 12:28:15;;;;;;;18.40;4.07;;;10.80;99.90;;;;;;5042658;28;20665;-81
2024/01/24 12:30:45;;;;;;;17.53;3.57;;;10.90;99.90;;;;;;5035314;28;20202;-80
2024/01/24 12:33:13;;;;;;;11.43;2.83;;;10.90;99.90;;;;;;5038047;28;20294;-79
2024/01/24 12:35:45;;;;;;;20.67;4.70;;;10.80;99.90;;;;;;5032933;28;20230;-82
2024/01/24 12:38:14;;;;;;;17.70;3.27;;;10.80;99.90;;;;;;5039827;28;20195;-82
2024/01/24 12:40:40;;;;;;;20.73;4.27;;;10.80;99.90;;;;;;5033992;28;20239;-83
2024/01/24 12:43:08;;;;;;;22.50;4.17;;;10.80;99.90;;;;;;5044857;28;20207;-84
2024/01/24 12:45:35;;;;;;;17.03;3.40;;;10.80;99.90;;;;;;5037126;28;20303;-82
2024/01/24 12:48:11;;;;;;;18.87;4.27;;;10.80;99.90;;;;;;5037883;28;20199;-81